sensor_id;sensor_type;location;lat;lon;timestamp;P1;durP1;ratioP1;P2;durP2;ratioP2
34872;SDS011;21084;51.098;14.506;2023-06-10T00:01:06;8.82;;;7.43;;
34872;SDS011;21084;51.098;14.506;2023-06-10T00:03:35;12.68;;;8.48;;
34872;SDS011;21084;51.098;14.506;2023-06-10T00:06:04;9.70;;;8.70;;
34872;SDS011;21084;51.098;14.506;2023-06-10T00:08:34;14.70;;;8.27;;
34872;SDS011;21084;51.098;14.506;2023-06-10T00:11:04;10.68;;;7.97;;
34872;SDS011;21084;51.098;14.506;2023-06-10T00:13:32;11.63;;;8.23;;
34872;SDS011;21084;51.098;14.506;2023-06-10T00:16:01;14.80;;;8.82;;
34872;SDS011;21084;51.098;14.506;2023-06-10T00:18:30;9.17;;;7.73;;
34872;SDS011;21084;51.098;14.506;2023-06-10T00:20:59;10.38;;;8.05;;
34872;SDS011;21084;51.098;14.506;2023-06-10T00:23:31;9.70;;;8.65;;
34872;SDS011;21084;51.098;14.506;2023-06-10T00:26:06;10.02;;;7.78;;
34872;SDS011;21084;51.098;14.506;2023-06-10T00:28:35;15.15;;;8.38;;
34872;SDS011;21084;51.098;14.506;2023-06-10T00:31:03;12.32;;;8.35;;
34872;SDS011;21084;51.098;14.506;2023-06-10T00:33:32;10.02;;;7.60;;
34872;SDS011;21084;51.098;14.506;2023-06-10T00:36:01;9.13;;;7.65;;
34872;SDS011;21084;51.098;14.506;2023-06-10T00:38:29;9.25;;;8.23;;
34872;SDS011;21084;51.098;14.506;2023-06-10T00:40:58;14.07;;;9.27;;
34872;SDS011;21084;51.098;14.506;2023-06-10T00:43:28;10.77;;;8.65;;
34872;SDS011;21084;51.098;14.506;2023-06-10T00:45:57;10.63;;;8.82;;
34872;SDS011;21084;51.098;14.506;2023-06-10T00:48:25;9.68;;;8.55;;
34872;SDS011;21084;51.098;14.506;2023-06-10T00:50:55;9.33;;;8.40;;
34872;SDS011;21084;51.098;14.506;2023-06-10T00:53:24;10.40;;;8.07;;
34872;SDS011;21084;51.098;14.506;2023-06-10T00:55:53;12.03;;;8.13;;
34872;SDS011;21084;51.098;14.506;2023-06-10T00:58:22;13.27;;;9.20;;
34872;SDS011;21084;51.098;14.506;2023-06-10T01:00:53;11.88;;;8.93;;
34872;SDS011;21084;51.098;14.506;2023-06-10T01:03:22;11.63;;;9.80;;
34872;SDS011;21084;51.098;14.506;2023-06-10T01:05:53;12.35;;;10.23;;
34872;SDS011;21084;51.098;14.506;2023-06-10T01:08:30;12.82;;;10.43;;
34872;SDS011;21084;51.098;14.506;2023-06-10T01:11:07;12.27;;;10.20;;
34872;SDS011;21084;51.098;14.506;2023-06-10T01:13:41;13.43;;;9.68;;
34872;SDS011;21084;51.098;14.506;2023-06-10T01:16:13;13.70;;;9.63;;
34872;SDS011;21084;51.098;14.506;2023-06-10T01:18:42;13.48;;;10.50;;
34872;SDS011;21084;51.098;14.506;2023-06-10T01:21:16;12.97;;;9.97;;
34872;SDS011;21084;51.098;14.506;2023-06-10T01:23:47;14.68;;;10.20;;
34872;SDS011;21084;51.098;14.506;2023-06-10T01:26:16;11.95;;;9.70;;
34872;SDS011;21084;51.098;14.506;2023-06-10T01:28:47;11.40;;;10.15;;
34872;SDS011;21084;51.098;14.506;2023-06-10T01:31:23;12.57;;;9.88;;
34872;SDS011;21084;51.098;14.506;2023-06-10T01:34:01;11.55;;;9.30;;
34872;SDS011;21084;51.098;14.506;2023-06-10T01:36:32;11.95;;;10.15;;
34872;SDS011;21084;51.098;14.506;2023-06-10T01:39:03;11.27;;;9.68;;
34872;SDS011;21084;51.098;14.506;2023-06-10T01:41:32;10.43;;;9.00;;
34872;SDS011;21084;51.098;14.506;2023-06-10T01:44:01;13.57;;;10.10;;
34872;SDS011;21084;51.098;14.506;2023-06-10T01:46:31;10.60;;;9.40;;
34872;SDS011;21084;51.098;14.506;2023-06-10T01:48:59;16.73;;;10.90;;
34872;SDS011;21084;51.098;14.506;2023-06-10T01:51:28;14.90;;;10.65;;
34872;SDS011;21084;51.098;14.506;2023-06-10T01:53:59;17.33;;;10.32;;
34872;SDS011;21084;51.098;14.506;2023-06-10T01:58:56;12.27;;;10.07;;
34872;SDS011;21084;51.098;14.506;2023-06-10T02:01:26;14.13;;;9.98;;
34872;SDS011;21084;51.098;14.506;2023-06-10T02:03:54;16.30;;;9.73;;
34872;SDS011;21084;51.098;14.506;2023-06-10T02:06:23;13.55;;;9.45;;
34872;SDS011;21084;51.098;14.506;2023-06-10T02:08:52;11.00;;;8.88;;
34872;SDS011;21084;51.098;14.506;2023-06-10T02:11:22;10.63;;;8.98;;
34872;SDS011;21084;51.098;14.506;2023-06-10T02:13:51;11.02;;;9.32;;
34872;SDS011;21084;51.098;14.506;2023-06-10T02:16:20;10.90;;;8.75;;
34872;SDS011;21084;51.098;14.506;2023-06-10T02:18:48;16.95;;;9.13;;
34872;SDS011;21084;51.098;14.506;2023-06-10T02:21:17;9.77;;;8.40;;
34872;SDS011;21084;51.098;14.506;2023-06-10T02:23:45;10.35;;;8.10;;
34872;SDS011;21084;51.098;14.506;2023-06-10T02:26:14;12.02;;;8.43;;
34872;SDS011;21084;51.098;14.506;2023-06-10T02:28:44;9.77;;;7.70;;
34872;SDS011;21084;51.098;14.506;2023-06-10T02:31:12;10.07;;;8.20;;
34872;SDS011;21084;51.098;14.506;2023-06-10T02:33:45;10.88;;;7.13;;
34872;SDS011;21084;51.098;14.506;2023-06-10T02:36:13;10.38;;;7.65;;
34872;SDS011;21084;51.098;14.506;2023-06-10T02:38:42;9.38;;;7.68;;
34872;SDS011;21084;51.098;14.506;2023-06-10T02:41:11;11.15;;;7.78;;
34872;SDS011;21084;51.098;14.506;2023-06-10T02:43:39;11.10;;;7.45;;
34872;SDS011;21084;51.098;14.506;2023-06-10T02:46:09;10.10;;;7.55;;
34872;SDS011;21084;51.098;14.506;2023-06-10T02:51:09;10.95;;;7.22;;
34872;SDS011;21084;51.098;14.506;2023-06-10T02:53:38;10.00;;;6.85;;
34872;SDS011;21084;51.098;14.506;2023-06-10T02:56:08;14.50;;;8.88;;
34872;SDS011;21084;51.098;14.506;2023-06-10T02:58:38;12.23;;;7.22;;
34872;SDS011;21084;51.098;14.506;2023-06-10T03:01:08;9.27;;;7.78;;
34872;SDS011;21084;51.098;14.506;2023-06-10T03:03:37;9.52;;;7.57;;
34872;SDS011;21084;51.098;14.506;2023-06-10T03:06:09;12.57;;;7.97;;
34872;SDS011;21084;51.098;14.506;2023-06-10T03:08:39;8.40;;;7.20;;
34872;SDS011;21084;51.098;14.506;2023-06-10T03:11:08;9.27;;;7.30;;
34872;SDS011;21084;51.098;14.506;2023-06-10T03:13:38;8.90;;;6.70;;
34872;SDS011;21084;51.098;14.506;2023-06-10T03:16:08;8.68;;;7.18;;
34872;SDS011;21084;51.098;14.506;2023-06-10T03:18:39;8.57;;;6.72;;
34872;SDS011;21084;51.098;14.506;2023-06-10T03:21:07;9.27;;;7.97;;
34872;SDS011;21084;51.098;14.506;2023-06-10T03:23:36;11.02;;;7.13;;
34872;SDS011;21084;51.098;14.506;2023-06-10T03:26:05;9.10;;;6.47;;
34872;SDS011;21084;51.098;14.506;2023-06-10T03:28:34;10.25;;;7.50;;
34872;SDS011;21084;51.098;14.506;2023-06-10T03:31:03;8.25;;;6.40;;
34872;SDS011;21084;51.098;14.506;2023-06-10T03:33:32;10.23;;;6.88;;
34872;SDS011;21084;51.098;14.506;2023-06-10T03:36:03;8.32;;;7.30;;
34872;SDS011;21084;51.098;14.506;2023-06-10T03:38:32;10.50;;;8.25;;
34872;SDS011;21084;51.098;14.506;2023-06-10T03:41:00;15.13;;;7.80;;
34872;SDS011;21084;51.098;14.506;2023-06-10T03:43:29;10.90;;;8.38;;
34872;SDS011;21084;51.098;14.506;2023-06-10T03:45:58;13.35;;;8.52;;
34872;SDS011;21084;51.098;14.506;2023-06-10T03:48:27;10.68;;;7.93;;
34872;SDS011;21084;51.098;14.506;2023-06-10T03:50:59;11.65;;;8.25;;
34872;SDS011;21084;51.098;14.506;2023-06-10T03:55:56;9.45;;;7.47;;
34872;SDS011;21084;51.098;14.506;2023-06-10T03:58:25;15.38;;;8.15;;
34872;SDS011;21084;51.098;14.506;2023-06-10T04:00:53;12.00;;;7.20;;
34872;SDS011;21084;51.098;14.506;2023-06-10T04:03:22;14.68;;;7.15;;
34872;SDS011;21084;51.098;14.506;2023-06-10T04:05:50;11.55;;;6.82;;
34872;SDS011;21084;51.098;14.506;2023-06-10T04:08:22;13.70;;;7.38;;
34872;SDS011;21084;51.098;14.506;2023-06-10T04:10:51;9.25;;;7.28;;
34872;SDS011;21084;51.098;14.506;2023-06-10T04:13:20;9.23;;;7.07;;
34872;SDS011;21084;51.098;14.506;2023-06-10T04:15:48;14.52;;;8.05;;
34872;SDS011;21084;51.098;14.506;2023-06-10T04:18:17;13.50;;;8.02;;
34872;SDS011;21084;51.098;14.506;2023-06-10T04:20:46;13.35;;;7.65;;
34872;SDS011;21084;51.098;14.506;2023-06-10T04:23:14;10.15;;;7.18;;
34872;SDS011;21084;51.098;14.506;2023-06-10T04:25:44;10.00;;;6.95;;
34872;SDS011;21084;51.098;14.506;2023-06-10T04:28:13;10.07;;;7.45;;
34872;SDS011;21084;51.098;14.506;2023-06-10T04:30:42;12.93;;;7.00;;
34872;SDS011;21084;51.098;14.506;2023-06-10T04:33:11;10.05;;;7.82;;
34872;SDS011;21084;51.098;14.506;2023-06-10T04:35:40;13.00;;;8.48;;
34872;SDS011;21084;51.098;14.506;2023-06-10T04:38:09;12.07;;;7.60;;
34872;SDS011;21084;51.098;14.506;2023-06-10T04:40:37;14.20;;;7.45;;
34872;SDS011;21084;51.098;14.506;2023-06-10T04:43:08;10.55;;;7.72;;
34872;SDS011;21084;51.098;14.506;2023-06-10T04:48:04;9.23;;;6.85;;
34872;SDS011;21084;51.098;14.506;2023-06-10T04:50:34;9.55;;;6.32;;
34872;SDS011;21084;51.098;14.506;2023-06-10T04:53:02;10.10;;;6.03;;
34872;SDS011;21084;51.098;14.506;2023-06-10T04:55:31;11.50;;;6.13;;
34872;SDS011;21084;51.098;14.506;2023-06-10T04:58:00;7.60;;;5.23;;
34872;SDS011;21084;51.098;14.506;2023-06-10T05:00:31;9.15;;;5.97;;
34872;SDS011;21084;51.098;14.506;2023-06-10T05:02:59;9.25;;;5.45;;
34872;SDS011;21084;51.098;14.506;2023-06-10T05:05:28;8.93;;;5.63;;
34872;SDS011;21084;51.098;14.506;2023-06-10T05:07:56;6.70;;;5.43;;
34872;SDS011;21084;51.098;14.506;2023-06-10T05:10:25;8.30;;;5.47;;
34872;SDS011;21084;51.098;14.506;2023-06-10T05:12:53;6.18;;;5.40;;
34872;SDS011;21084;51.098;14.506;2023-06-10T05:15:22;9.93;;;5.40;;
34872;SDS011;21084;51.098;14.506;2023-06-10T05:17:52;8.27;;;5.20;;
34872;SDS011;21084;51.098;14.506;2023-06-10T05:20:21;6.65;;;4.88;;
34872;SDS011;21084;51.098;14.506;2023-06-10T05:22:49;6.03;;;4.90;;
34872;SDS011;21084;51.098;14.506;2023-06-10T05:25:17;5.65;;;5.10;;
34872;SDS011;21084;51.098;14.506;2023-06-10T05:27:46;6.88;;;5.20;;
34872;SDS011;21084;51.098;14.506;2023-06-10T05:30:14;6.55;;;5.30;;
34872;SDS011;21084;51.098;14.506;2023-06-10T05:32:45;9.63;;;5.38;;
34872;SDS011;21084;51.098;14.506;2023-06-10T05:35:15;5.82;;;5.15;;
34872;SDS011;21084;51.098;14.506;2023-06-10T05:37:44;8.43;;;5.00;;
34872;SDS011;21084;51.098;14.506;2023-06-10T05:40:12;6.35;;;5.00;;
34872;SDS011;21084;51.098;14.506;2023-06-10T05:42:41;6.15;;;5.13;;
34872;SDS011;21084;51.098;14.506;2023-06-10T05:45:10;5.70;;;5.05;;
34872;SDS011;21084;51.098;14.506;2023-06-10T05:47:39;6.07;;;5.20;;
34872;SDS011;21084;51.098;14.506;2023-06-10T05:50:08;5.88;;;5.28;;
34872;SDS011;21084;51.098;14.506;2023-06-10T05:52:38;9.68;;;6.00;;
34872;SDS011;21084;51.098;14.506;2023-06-10T05:55:08;6.38;;;5.78;;
34872;SDS011;21084;51.098;14.506;2023-06-10T05:57:38;6.32;;;5.70;;
34872;SDS011;21084;51.098;14.506;2023-06-10T06:00:09;8.43;;;6.18;;
34872;SDS011;21084;51.098;14.506;2023-06-10T06:02:38;9.32;;;6.32;;
34872;SDS011;21084;51.098;14.506;2023-06-10T06:05:07;6.78;;;6.07;;
34872;SDS011;21084;51.098;14.506;2023-06-10T06:07:36;11.00;;;6.30;;
34872;SDS011;21084;51.098;14.506;2023-06-10T06:10:07;12.52;;;6.53;;
34872;SDS011;21084;51.098;14.506;2023-06-10T06:12:35;9.90;;;6.90;;
34872;SDS011;21084;51.098;14.506;2023-06-10T06:15:04;10.80;;;6.40;;
34872;SDS011;21084;51.098;14.506;2023-06-10T06:17:35;12.20;;;6.45;;
34872;SDS011;21084;51.098;14.506;2023-06-10T06:20:04;8.10;;;6.30;;
34872;SDS011;21084;51.098;14.506;2023-06-10T06:22:33;8.15;;;5.82;;
34872;SDS011;21084;51.098;14.506;2023-06-10T06:25:04;7.57;;;5.05;;
34872;SDS011;21084;51.098;14.506;2023-06-10T06:27:34;8.82;;;5.95;;
34872;SDS011;21084;51.098;14.506;2023-06-10T06:30:02;9.23;;;6.43;;
34872;SDS011;21084;51.098;14.506;2023-06-10T06:32:32;6.70;;;5.88;;
34872;SDS011;21084;51.098;14.506;2023-06-10T06:35:01;9.48;;;6.10;;
34872;SDS011;21084;51.098;14.506;2023-06-10T06:37:29;9.55;;;6.38;;
34872;SDS011;21084;51.098;14.506;2023-06-10T06:39:58;8.77;;;6.18;;
34872;SDS011;21084;51.098;14.506;2023-06-10T06:42:31;8.65;;;6.10;;
34872;SDS011;21084;51.098;14.506;2023-06-10T06:47:28;9.07;;;5.93;;
34872;SDS011;21084;51.098;14.506;2023-06-10T06:49:56;8.57;;;5.70;;
34872;SDS011;21084;51.098;14.506;2023-06-10T06:52:25;9.90;;;5.85;;
34872;SDS011;21084;51.098;14.506;2023-06-10T06:54:54;8.03;;;5.70;;
34872;SDS011;21084;51.098;14.506;2023-06-10T06:57:22;8.00;;;5.63;;
34872;SDS011;21084;51.098;14.506;2023-06-10T06:59:52;8.13;;;6.28;;
34872;SDS011;21084;51.098;14.506;2023-06-10T07:02:21;8.30;;;5.82;;
34872;SDS011;21084;51.098;14.506;2023-06-10T07:04:50;7.68;;;5.70;;
34872;SDS011;21084;51.098;14.506;2023-06-10T07:07:22;5.97;;;5.32;;
34872;SDS011;21084;51.098;14.506;2023-06-10T07:09:50;8.43;;;6.15;;
34872;SDS011;21084;51.098;14.506;2023-06-10T07:12:20;9.00;;;6.63;;
34872;SDS011;21084;51.098;14.506;2023-06-10T07:14:50;6.53;;;5.82;;
34872;SDS011;21084;51.098;14.506;2023-06-10T07:17:20;10.40;;;6.10;;
34872;SDS011;21084;51.098;14.506;2023-06-10T07:19:49;11.35;;;6.70;;
34872;SDS011;21084;51.098;14.506;2023-06-10T07:22:18;7.40;;;5.75;;
34872;SDS011;21084;51.098;14.506;2023-06-10T07:24:47;7.22;;;5.80;;
34872;SDS011;21084;51.098;14.506;2023-06-10T07:27:15;6.95;;;5.82;;
34872;SDS011;21084;51.098;14.506;2023-06-10T07:29:44;9.55;;;5.55;;
34872;SDS011;21084;51.098;14.506;2023-06-10T07:32:14;8.63;;;5.80;;
34872;SDS011;21084;51.098;14.506;2023-06-10T07:34:45;10.50;;;5.60;;
34872;SDS011;21084;51.098;14.506;2023-06-10T07:37:13;6.82;;;5.45;;
34872;SDS011;21084;51.098;14.506;2023-06-10T07:39:42;9.90;;;5.90;;
34872;SDS011;21084;51.098;14.506;2023-06-10T07:42:11;7.60;;;5.53;;
34872;SDS011;21084;51.098;14.506;2023-06-10T07:44:39;6.70;;;5.00;;
34872;SDS011;21084;51.098;14.506;2023-06-10T07:47:08;7.70;;;5.60;;
34872;SDS011;21084;51.098;14.506;2023-06-10T07:49:39;6.93;;;5.20;;
34872;SDS011;21084;51.098;14.506;2023-06-10T07:52:08;7.05;;;4.80;;
34872;SDS011;21084;51.098;14.506;2023-06-10T07:54:37;9.07;;;5.30;;
34872;SDS011;21084;51.098;14.506;2023-06-10T07:57:06;7.68;;;5.47;;
34872;SDS011;21084;51.098;14.506;2023-06-10T07:59:35;6.88;;;5.35;;
34872;SDS011;21084;51.098;14.506;2023-06-10T08:02:04;6.20;;;5.43;;
34872;SDS011;21084;51.098;14.506;2023-06-10T08:04:33;6.68;;;5.63;;
34872;SDS011;21084;51.098;14.506;2023-06-10T08:07:04;8.02;;;6.03;;
34872;SDS011;21084;51.098;14.506;2023-06-10T08:09:33;11.27;;;6.10;;
34872;SDS011;21084;51.098;14.506;2023-06-10T08:12:01;8.98;;;6.10;;
34872;SDS011;21084;51.098;14.506;2023-06-10T08:16:59;7.47;;;5.95;;
34872;SDS011;21084;51.098;14.506;2023-06-10T08:19:28;7.90;;;6.07;;
34872;SDS011;21084;51.098;14.506;2023-06-10T08:21:57;12.77;;;6.10;;
34872;SDS011;21084;51.098;14.506;2023-06-10T08:24:27;9.25;;;5.93;;
34872;SDS011;21084;51.098;14.506;2023-06-10T08:26:56;9.10;;;6.15;;
34872;SDS011;21084;51.098;14.506;2023-06-10T08:29:25;7.70;;;5.80;;
34872;SDS011;21084;51.098;14.506;2023-06-10T08:31:54;10.17;;;5.90;;
34872;SDS011;21084;51.098;14.506;2023-06-10T08:34:23;7.47;;;6.00;;
34872;SDS011;21084;51.098;14.506;2023-06-10T08:36:51;10.70;;;6.43;;
34872;SDS011;21084;51.098;14.506;2023-06-10T08:39:22;7.70;;;5.70;;
34872;SDS011;21084;51.098;14.506;2023-06-10T08:42:03;6.38;;;5.70;;
34872;SDS011;21084;51.098;14.506;2023-06-10T08:44:37;9.98;;;6.20;;
34872;SDS011;21084;51.098;14.506;2023-06-10T08:47:13;10.38;;;5.30;;
34872;SDS011;21084;51.098;14.506;2023-06-10T08:49:43;8.05;;;5.72;;
34872;SDS011;21084;51.098;14.506;2023-06-10T08:52:14;9.45;;;5.22;;
34872;SDS011;21084;51.098;14.506;2023-06-10T08:54:46;8.50;;;4.70;;
34872;SDS011;21084;51.098;14.506;2023-06-10T08:57:21;8.57;;;5.45;;
34872;SDS011;21084;51.098;14.506;2023-06-10T08:59:51;8.77;;;5.07;;
34872;SDS011;21084;51.098;14.506;2023-06-10T09:02:21;7.95;;;5.57;;
34872;SDS011;21084;51.098;14.506;2023-06-10T09:04:50;9.73;;;6.05;;
34872;SDS011;21084;51.098;14.506;2023-06-10T09:07:19;9.90;;;5.50;;
34872;SDS011;21084;51.098;14.506;2023-06-10T09:09:48;8.85;;;5.88;;
34872;SDS011;21084;51.098;14.506;2023-06-10T09:12:21;6.25;;;5.22;;
34872;SDS011;21084;51.098;14.506;2023-06-10T09:14:50;11.35;;;5.75;;
34872;SDS011;21084;51.098;14.506;2023-06-10T09:17:18;7.23;;;5.50;;
34872;SDS011;21084;51.098;14.506;2023-06-10T09:19:47;6.70;;;5.68;;
34872;SDS011;21084;51.098;14.506;2023-06-10T09:22:20;8.30;;;5.60;;
34872;SDS011;21084;51.098;14.506;2023-06-10T09:24:49;7.13;;;5.95;;
34872;SDS011;21084;51.098;14.506;2023-06-10T09:27:18;10.02;;;5.57;;
34872;SDS011;21084;51.098;14.506;2023-06-10T09:29:51;11.90;;;5.97;;
34872;SDS011;21084;51.098;14.506;2023-06-10T09:32:21;11.30;;;6.82;;
34872;SDS011;21084;51.098;14.506;2023-06-10T09:34:50;13.23;;;6.35;;
34872;SDS011;21084;51.098;14.506;2023-06-10T09:37:21;16.15;;;6.63;;
34872;SDS011;21084;51.098;14.506;2023-06-10T09:40:01;8.85;;;5.90;;
34872;SDS011;21084;51.098;14.506;2023-06-10T09:42:32;7.85;;;5.97;;
34872;SDS011;21084;51.098;14.506;2023-06-10T09:45:03;7.90;;;5.63;;
34872;SDS011;21084;51.098;14.506;2023-06-10T09:47:33;8.23;;;5.65;;
34872;SDS011;21084;51.098;14.506;2023-06-10T09:50:03;10.50;;;6.00;;
34872;SDS011;21084;51.098;14.506;2023-06-10T09:52:36;11.02;;;6.35;;
34872;SDS011;21084;51.098;14.506;2023-06-10T09:55:07;10.25;;;6.10;;
34872;SDS011;21084;51.098;14.506;2023-06-10T09:57:38;7.80;;;6.50;;
34872;SDS011;21084;51.098;14.506;2023-06-10T10:00:11;11.35;;;6.07;;
34872;SDS011;21084;51.098;14.506;2023-06-10T10:02:44;12.75;;;6.35;;
34872;SDS011;21084;51.098;14.506;2023-06-10T10:05:15;9.63;;;6.60;;
34872;SDS011;21084;51.098;14.506;2023-06-10T10:07:45;7.28;;;6.53;;
34872;SDS011;21084;51.098;14.506;2023-06-10T10:10:15;10.33;;;6.43;;
34872;SDS011;21084;51.098;14.506;2023-06-10T10:12:48;10.30;;;6.90;;
34872;SDS011;21084;51.098;14.506;2023-06-10T10:15:22;10.50;;;6.57;;
34872;SDS011;21084;51.098;14.506;2023-06-10T10:18:03;10.48;;;6.53;;
34872;SDS011;21084;51.098;14.506;2023-06-10T10:20:38;7.78;;;6.32;;
34872;SDS011;21084;51.098;14.506;2023-06-10T10:23:21;7.22;;;5.90;;
34872;SDS011;21084;51.098;14.506;2023-06-10T10:25:54;12.05;;;6.50;;
34872;SDS011;21084;51.098;14.506;2023-06-10T10:28:25;8.40;;;6.35;;
34872;SDS011;21084;51.098;14.506;2023-06-10T10:31:06;10.75;;;6.45;;
34872;SDS011;21084;51.098;14.506;2023-06-10T10:33:40;10.07;;;7.22;;
34872;SDS011;21084;51.098;14.506;2023-06-10T10:36:16;10.52;;;6.63;;
34872;SDS011;21084;51.098;14.506;2023-06-10T10:38:47;9.05;;;6.85;;
34872;SDS011;21084;51.098;14.506;2023-06-10T10:41:18;9.30;;;6.53;;
34872;SDS011;21084;51.098;14.506;2023-06-10T10:43:48;9.80;;;6.72;;
34872;SDS011;21084;51.098;14.506;2023-06-10T10:46:19;9.73;;;7.85;;
34872;SDS011;21084;51.098;14.506;2023-06-10T10:48:51;8.52;;;7.65;;
34872;SDS011;21084;51.098;14.506;2023-06-10T10:51:22;10.48;;;7.32;;
34872;SDS011;21084;51.098;14.506;2023-06-10T10:54:10;12.25;;;7.35;;
34872;SDS011;21084;51.098;14.506;2023-06-10T10:59:45;14.15;;;7.88;;
34872;SDS011;21084;51.098;14.506;2023-06-10T11:02:49;11.10;;;8.02;;
34872;SDS011;21084;51.098;14.506;2023-06-10T11:05:30;9.25;;;7.80;;
34872;SDS011;21084;51.098;14.506;2023-06-10T11:08:03;10.63;;;7.47;;
34872;SDS011;21084;51.098;14.506;2023-06-10T11:10:32;11.47;;;7.90;;
34872;SDS011;21084;51.098;14.506;2023-06-10T11:13:05;9.65;;;7.97;;
34872;SDS011;21084;51.098;14.506;2023-06-10T11:15:38;8.57;;;7.50;;
34872;SDS011;21084;51.098;14.506;2023-06-10T11:18:10;12.73;;;8.57;;
34872;SDS011;21084;51.098;14.506;2023-06-10T11:23:39;12.27;;;8.73;;
34872;SDS011;21084;51.098;14.506;2023-06-10T11:26:11;10.82;;;8.52;;
34872;SDS011;21084;51.098;14.506;2023-06-10T11:28:41;13.43;;;7.97;;
34872;SDS011;21084;51.098;14.506;2023-06-10T11:31:29;10.20;;;7.82;;
34872;SDS011;21084;51.098;14.506;2023-06-10T11:34:00;12.88;;;8.52;;
34872;SDS011;21084;51.098;14.506;2023-06-10T11:36:32;10.30;;;8.07;;
34872;SDS011;21084;51.098;14.506;2023-06-10T11:39:02;11.20;;;8.00;;
34872;SDS011;21084;51.098;14.506;2023-06-10T11:41:32;11.93;;;7.68;;
34872;SDS011;21084;51.098;14.506;2023-06-10T11:44:02;10.98;;;7.70;;
34872;SDS011;21084;51.098;14.506;2023-06-10T11:46:32;10.27;;;7.25;;
34872;SDS011;21084;51.098;14.506;2023-06-10T11:49:03;10.00;;;7.25;;
34872;SDS011;21084;51.098;14.506;2023-06-10T11:51:33;7.53;;;5.80;;
34872;SDS011;21084;51.098;14.506;2023-06-10T11:54:03;7.10;;;5.80;;
34872;SDS011;21084;51.098;14.506;2023-06-10T11:56:33;9.48;;;5.38;;
34872;SDS011;21084;51.098;14.506;2023-06-10T11:59:02;9.43;;;5.70;;
34872;SDS011;21084;51.098;14.506;2023-06-10T12:01:35;8.50;;;5.38;;
34872;SDS011;21084;51.098;14.506;2023-06-10T12:04:11;9.65;;;5.40;;
34872;SDS011;21084;51.098;14.506;2023-06-10T12:06:41;9.25;;;6.00;;
34872;SDS011;21084;51.098;14.506;2023-06-10T12:09:18;8.95;;;5.53;;
34872;SDS011;21084;51.098;14.506;2023-06-10T12:11:54;6.10;;;5.50;;
34872;SDS011;21084;51.098;14.506;2023-06-10T12:17:35;12.75;;;6.07;;
34872;SDS011;21084;51.098;14.506;2023-06-10T12:20:07;8.73;;;5.72;;
34872;SDS011;21084;51.098;14.506;2023-06-10T12:22:39;9.13;;;5.00;;
34872;SDS011;21084;51.098;14.506;2023-06-10T12:25:09;7.35;;;4.40;;
34872;SDS011;21084;51.098;14.506;2023-06-10T12:27:40;8.38;;;4.07;;
34872;SDS011;21084;51.098;14.506;2023-06-10T12:30:19;6.10;;;4.43;;
34872;SDS011;21084;51.098;14.506;2023-06-10T12:32:48;5.93;;;4.03;;
34872;SDS011;21084;51.098;14.506;2023-06-10T12:35:19;9.93;;;4.22;;
34872;SDS011;21084;51.098;14.506;2023-06-10T12:37:55;6.95;;;5.25;;
34872;SDS011;21084;51.098;14.506;2023-06-10T12:40:27;9.23;;;5.10;;
34872;SDS011;21084;51.098;14.506;2023-06-10T12:42:58;11.02;;;4.93;;
34872;SDS011;21084;51.098;14.506;2023-06-10T12:45:27;5.30;;;4.28;;
34872;SDS011;21084;51.098;14.506;2023-06-10T12:48:06;5.15;;;4.63;;
34872;SDS011;21084;51.098;14.506;2023-06-10T12:50:39;10.88;;;4.90;;
34872;SDS011;21084;51.098;14.506;2023-06-10T12:53:08;6.75;;;4.43;;
34872;SDS011;21084;51.098;14.506;2023-06-10T12:55:38;7.20;;;4.95;;
34872;SDS011;21084;51.098;14.506;2023-06-10T12:58:07;5.28;;;4.78;;
34872;SDS011;21084;51.098;14.506;2023-06-10T13:00:36;6.22;;;5.20;;
34872;SDS011;21084;51.098;14.506;2023-06-10T13:03:04;7.40;;;5.30;;
34872;SDS011;21084;51.098;14.506;2023-06-10T13:05:34;7.72;;;5.22;;
34872;SDS011;21084;51.098;14.506;2023-06-10T13:08:05;8.13;;;5.85;;
34872;SDS011;21084;51.098;14.506;2023-06-10T13:10:36;7.60;;;5.57;;
34872;SDS011;21084;51.098;14.506;2023-06-10T13:13:06;11.65;;;7.03;;
34872;SDS011;21084;51.098;14.506;2023-06-10T13:15:36;8.57;;;5.82;;
34872;SDS011;21084;51.098;14.506;2023-06-10T13:18:09;6.88;;;6.18;;
34872;SDS011;21084;51.098;14.506;2023-06-10T13:20:38;11.75;;;5.72;;
34872;SDS011;21084;51.098;14.506;2023-06-10T13:23:08;13.17;;;6.50;;
34872;SDS011;21084;51.098;14.506;2023-06-10T13:25:37;13.90;;;7.00;;
34872;SDS011;21084;51.098;14.506;2023-06-10T13:28:07;10.48;;;7.45;;
34872;SDS011;21084;51.098;14.506;2023-06-10T13:30:36;9.90;;;7.13;;
34872;SDS011;21084;51.098;14.506;2023-06-10T13:33:04;9.65;;;7.25;;
34872;SDS011;21084;51.098;14.506;2023-06-10T13:35:33;8.88;;;7.07;;
34872;SDS011;21084;51.098;14.506;2023-06-10T13:38:02;9.65;;;7.28;;
34872;SDS011;21084;51.098;14.506;2023-06-10T13:40:32;8.57;;;7.07;;
34872;SDS011;21084;51.098;14.506;2023-06-10T13:43:01;11.02;;;7.72;;
34872;SDS011;21084;51.098;14.506;2023-06-10T13:45:30;11.77;;;6.97;;
34872;SDS011;21084;51.098;14.506;2023-06-10T13:47:58;9.73;;;6.78;;
34872;SDS011;21084;51.098;14.506;2023-06-10T13:52:56;12.95;;;7.00;;
34872;SDS011;21084;51.098;14.506;2023-06-10T13:55:28;10.00;;;6.63;;
34872;SDS011;21084;51.098;14.506;2023-06-10T13:57:58;12.13;;;7.70;;
34872;SDS011;21084;51.098;14.506;2023-06-10T14:00:27;10.45;;;7.07;;
34872;SDS011;21084;51.098;14.506;2023-06-10T14:02:56;8.95;;;6.95;;
34872;SDS011;21084;51.098;14.506;2023-06-10T14:05:25;12.40;;;7.45;;
34872;SDS011;21084;51.098;14.506;2023-06-10T14:07:57;15.38;;;7.10;;
34872;SDS011;21084;51.098;14.506;2023-06-10T14:10:27;9.40;;;6.40;;
34872;SDS011;21084;51.098;14.506;2023-06-10T14:12:56;10.65;;;7.05;;
34872;SDS011;21084;51.098;14.506;2023-06-10T14:15:27;9.40;;;6.57;;
34872;SDS011;21084;51.098;14.506;2023-06-10T14:17:57;11.30;;;6.65;;
34872;SDS011;21084;51.098;14.506;2023-06-10T14:20:26;8.52;;;7.10;;
34872;SDS011;21084;51.098;14.506;2023-06-10T14:22:58;12.30;;;6.90;;
34872;SDS011;21084;51.098;14.506;2023-06-10T14:25:26;11.07;;;6.70;;
34872;SDS011;21084;51.098;14.506;2023-06-10T14:27:55;11.82;;;7.03;;
34872;SDS011;21084;51.098;14.506;2023-06-10T14:32:54;11.77;;;7.25;;
34872;SDS011;21084;51.098;14.506;2023-06-10T14:35:22;7.23;;;6.43;;
34872;SDS011;21084;51.098;14.506;2023-06-10T14:37:51;10.07;;;6.47;;
34872;SDS011;21084;51.098;14.506;2023-06-10T14:40:19;8.30;;;6.55;;
34872;SDS011;21084;51.098;14.506;2023-06-10T14:42:50;9.52;;;6.35;;
34872;SDS011;21084;51.098;14.506;2023-06-10T14:45:19;9.70;;;6.63;;
34872;SDS011;21084;51.098;14.506;2023-06-10T14:47:49;7.78;;;6.38;;
34872;SDS011;21084;51.098;14.506;2023-06-10T14:50:18;9.73;;;7.25;;
34872;SDS011;21084;51.098;14.506;2023-06-10T14:52:47;9.77;;;7.38;;
34872;SDS011;21084;51.098;14.506;2023-06-10T14:55:16;11.43;;;7.20;;
34872;SDS011;21084;51.098;14.506;2023-06-10T14:57:45;9.67;;;6.63;;
34872;SDS011;21084;51.098;14.506;2023-06-10T15:00:14;8.90;;;6.82;;
34872;SDS011;21084;51.098;14.506;2023-06-10T15:02:46;11.20;;;6.72;;
34872;SDS011;21084;51.098;14.506;2023-06-10T15:05:17;16.33;;;6.95;;
34872;SDS011;21084;51.098;14.506;2023-06-10T15:07:46;13.98;;;6.57;;
34872;SDS011;21084;51.098;14.506;2023-06-10T15:10:16;10.05;;;6.85;;
34872;SDS011;21084;51.098;14.506;2023-06-10T15:12:48;10.60;;;6.38;;
34872;SDS011;21084;51.098;14.506;2023-06-10T15:15:22;13.82;;;6.25;;